Lawrence, KS

9:19 AM CDT on October 22, 2014 (GMT -0500)
Channel 6 Downtown | Change Station
CLOSE
Current Station
Personal Weather Station
Location: Lawrence, KS
Elevation: 850 ft
Nearby Weather Stations

Elev 850 ft 38.97 °N, 95.23 °W | Updated 2 seconds ago

Clear
Clear
56.8 °F
Feels Like 56.8 °F
N
2.0
Wind Variable Wind from South
Gusts 6.0 mph

Today
High -- | Low -- °F
--% Chance of Precip.
Yesterday
High -- | Low -- °F
Precip. -- in
7:37 AM 6:32 PM
Waning Crescent, 2% visible
Pressure 30.17 in
Visibility 9.0 miles
Clouds Clear
Dew Point 49 °F
Humidity 76%
Rainfall 0.00 in
Snow Depth Not available.
UV 1 out of 12
Pollen 3.50 out of 12
Air Quality Not available.
Flu Activity No Activity
METAR KLWC 221352Z AUTO 12009KT 9SM CLR 13/08 A3018 RMK AO2 SLP217 T01280083

More Conditions Fewer Conditions

Pressure 30.17 in
Visibility 9.0 miles
Clouds Clear
Dew Point 49 °F
Humidity 76%
Rainfall 0.00 in
Snow Depth Not available.
UV 1 out of 12
Pollen 3.50 out of 12
Air Quality Not available.
Flu Activity No Activity
METAR KLWC 221352Z AUTO 12009KT 9SM CLR 13/08 A3018 RMK AO2 SLP217 T01280083

More Conditions Fewer Conditions

10-Day Weather Forecast

Almanac

Astronomy

Oct. 22, 2014 Rise Set
Actual Time 7:37 AM CDT 6:32 PM CDT
Civil Twilight 7:10 AM CDT 6:59 PM CDT
Nautical Twilight 6:39 AM CDT 7:30 PM CDT
Astronomical Twilight 6:08 AM CDT 8:01 PM CDT
Moon 6:20 AM CDT 5:59 PM CDT
Length of Visible Light 11h 49m
Length of Day
10h 55m
Tomorrow will be 2m 23s shorter.
Waning Crescent, 2% of the Moon is Illuminated
Today
Waning Crescent
Oct 23
New
Oct 30
First Quarter
Nov 6
Full
Nov 14
Last Quarter

Today's Extremes

State Highs State Lows

Community

WunderPhotos

Upload Photos

1,763,927 photos uploaded!

WunderBlogs® & News

Nearby

Snow Depth

Station Depth Elevation
No new snow has been reported.

Earthquake Activity

City Distance Mag. Time & Date
No recent earthquake activity has been reported nearby.
Minimum magnitude displayed is 2.5.

Coastal Water Temperatures

Place Temperature
No Stations Reporting

Nearby Weather Stations